Airfield :
LOGIN :

Register | Disclaimer

   EN    FR    IT 

 










Legend :    VFR   Marginal VFR   IFR   Intensive IFR   Very Intensive IFR
Visi :
Ceiling :
>= 8 km
>= 3000ft
5 to 8 km
1000 to 3000 ft
1500m to 5 km
500 to 1000 ft
800 to 1500m
200 to 500 ft
< 800m
< 200 ft
Symbols :   Thunderstorms  Fog  Heavy snow  Heavy precipitations  Wind > 20 kt
SIGMETs :     Misc.  Thunderstorms  Icing  Turbulence  Mountain Waves  Volcanic Ashes






- Airport Elevation : 13 ft
- IATA code : OST


EBOS - Oostend bruges Int.

CURRENT METAR :
  • 251020Z 18010KT CAVOK 07/04 Q1015 NOSIG

EXPIRED METARs :
  • 250950Z 18008KT CAVOK 06/04 Q1015 NOSIG
  • 250920Z 18008KT CAVOK 06/03 Q1014 NOSIG
  • 250850Z 18007KT CAVOK 05/03 Q1014 NOSIG
  • 250820Z 17010KT CAVOK 04/02 Q1014 NOSIG
  • 250750Z 17010KT CAVOK 04/02 Q1014 NOSIG

TAF TAF EBOS
Valid from the 25 at 06:00 until the 26 at 12:00 UTC


250500Z 2506/2612 18010KT 9999 SCT020
TEMPO 2601/2611 3000 DZ BKN004



MET'MAP, your aeronautical weather chart ! - Copyright ORBIFLY December 2007 - Disclaimer

ORBIFLY MET'MAP TEAM :

Programming & Development : Alexandra Zaïnal
Concept & original design : Baudouin d'Aumeries
Assistance for programming : Marc-Olivier Méhu
Technical & hardware support : Manuel Goepfert

Contact : metmap@orbifly.com




SOURCES & CREDITS :

   NOAA